Time;durP1;ratioP1;P1;durP2;ratioP2;P2;SDS_P1;SDS_P2;PMS_P1;PMS_P2;Temp;Humidity;BMP_temperature;BMP_pressure;BME280_temperature;BME280_humidity;BME280_pressure;Samples;Min_cycle;Max_cycle;Signal;HPM_P1;HPM_P2
2021/04/27 00:01:04;;;;;;;16.08;11.68;;;;;;;;;;5049026;28;20415;-55
2021/04/27 00:03:37;;;;;;;14.45;12.25;;;;;;;;;;5048977;28;20025;-55
2021/04/27 00:06:09;;;;;;;16.47;12.07;;;;;;;;;;5049079;28;20104;-55
2021/04/27 00:08:40;;;;;;;14.82;11.05;;;;;;;;;;5048939;28;20733;-55
2021/04/27 00:11:17;;;;;;;19.67;12.50;;;;;;;;;;5048512;28;20043;-55
2021/04/27 00:13:51;;;;;;;18.40;12.07;;;;;;;;;;5061031;28;20055;-55
2021/04/27 00:16:18;;;;;;;19.70;12.55;;;;;;;;;;5055310;28;20040;-55
2021/04/27 00:18:55;;;;;;;14.75;12.65;;;;;;;;;;5055429;28;20026;-55
2021/04/27 00:21:29;;;;;;;24.17;12.68;;;;;;;;;;5055370;28;20017;-55
2021/04/27 00:23:57;;;;;;;;;;;;;;;;;;5055795;28;20025;-55
2021/04/27 00:26:34;;;;;;;19.38;12.00;;;;;;;;;;5055381;28;19905;-55
2021/04/27 00:29:05;;;;;;;17.35;11.63;;;;;;;;;;5055085;28;20037;-55
2021/04/27 00:31:38;;;;;;;16.30;11.68;;;;;;;;;;5055248;28;20028;-55
2021/04/27 00:34:09;;;;;;;19.70;12.30;;;;;;;;;;5055208;28;20111;-55
2021/04/27 00:36:40;;;;;;;16.25;11.75;;;;;;;;;;5053894;28;20130;-55
2021/04/27 00:39:12;;;;;;;14.77;11.65;;;;;;;;;;5055221;28;20017;-55
2021/04/27 00:41:42;;;;;;;18.17;12.63;;;;;;;;;;5055043;28;20079;-55
2021/04/27 00:44:14;;;;;;;18.63;11.90;;;;;;;;;;5055006;28;20051;-55
2021/04/27 00:46:47;;;;;;;16.83;12.27;;;;;;;;;;5055005;28;20083;-55
2021/04/27 00:49:16;;;;;;;17.00;12.05;;;;;;;;;;5037484;28;20448;-55
2021/04/27 00:51:45;;;;;;;16.77;12.60;;;;;;;;;;5054970;28;20028;-55
2021/04/27 00:54:13;;;;;;;17.10;12.70;;;;;;;;;;5054668;28;20108;-55
2021/04/27 00:56:49;;;;;;;21.53;12.70;;;;;;;;;;5054777;28;20021;-55
2021/04/27 00:59:28;;;;;;;22.00;12.67;;;;;;;;;;5054850;28;20021;-55
2021/04/27 01:01:59;;;;;;;22.60;13.53;;;;;;;;;;5054489;28;20514;-55
2021/04/27 01:04:33;;;;;;;17.43;13.07;;;;;;;;;;5036751;28;20021;-55
2021/04/27 01:07:02;;;;;;;18.98;14.38;;;;;;;;;;5054754;28;20131;-55
2021/04/27 01:09:38;;;;;;;20.57;13.40;;;;;;;;;;5054632;28;20112;-55
2021/04/27 01:12:31;;;;;;;18.60;13.53;;;;;;;;;;5054400;28;20029;-55
2021/04/27 01:15:09;;;;;;;20.90;12.40;;;;;;;;;;5054404;28;20091;-55
2021/04/27 01:17:38;;;;;;;21.93;15.67;;;;;;;;;;5054495;28;20020;-55
2021/04/27 01:20:08;;;;;;;18.87;13.73;;;;;;;;;;5054348;28;20021;-55
2021/04/27 01:22:44;;;;;;;26.60;14.67;;;;;;;;;;5054244;28;20040;-55
2021/04/27 01:25:16;;;;;;;22.00;14.37;;;;;;;;;;5053050;28;20049;-55
2021/04/27 01:27:47;;;;;;;18.43;13.37;;;;;;;;;;5054290;28;20036;-54
2021/04/27 01:30:18;;;;;;;20.73;13.53;;;;;;;;;;5053888;28;20438;-54
2021/04/27 01:32:57;;;;;;;21.17;14.67;;;;;;;;;;5054143;28;20021;-55
2021/04/27 01:35:32;;;;;;;21.43;15.70;;;;;;;;;;5054117;28;20041;-55
2021/04/27 01:38:02;;;;;;;18.50;13.90;;;;;;;;;;5054340;28;20068;-55
2021/04/27 01:40:32;;;;;;;20.70;14.67;;;;;;;;;;5053982;28;20059;-55
2021/04/27 01:43:05;;;;;;;25.27;15.27;;;;;;;;;;5053633;28;20029;-55
2021/04/27 01:45:35;;;;;;;17.27;14.27;;;;;;;;;;5053837;28;20409;-55
2021/04/27 01:48:05;;;;;;;23.47;15.57;;;;;;;;;;5053638;28;20487;-54
2021/04/27 01:50:43;;;;;;;21.23;15.47;;;;;;;;;;5053606;28;20490;-54
2021/04/27 01:53:17;;;;;;;23.20;15.07;;;;;;;;;;5053519;28;20037;-55
2021/04/27 01:55:44;;;;;;;22.33;14.97;;;;;;;;;;5053599;28;20013;-55
2021/04/27 01:58:11;;;;;;;21.07;15.83;;;;;;;;;;5053651;28;20174;-55
2021/04/27 02:00:38;;;;;;;24.37;15.57;;;;;;;;;;5053478;28;20025;-54
2021/04/27 02:03:05;;;;;;;24.90;16.20;;;;;;;;;;5053301;28;20037;-54
2021/04/27 02:05:32;;;;;;;18.37;15.03;;;;;;;;;;5035823;28;20104;-55
2021/04/27 02:07:59;;;;;;;24.67;16.27;;;;;;;;;;5053483;28;20083;-55
2021/04/27 02:10:27;;;;;;;23.63;15.37;;;;;;;;;;5053611;28;20040;-55
2021/04/27 02:12:55;;;;;;;26.50;16.13;;;;;;;;;;5053338;28;20047;-55
2021/04/27 02:15:24;;;;;;;20.80;15.43;;;;;;;;;;5053367;28;20471;-55
2021/04/27 02:17:59;;;;;;;24.33;15.83;;;;;;;;;;5053186;28;20235;-55
2021/04/27 02:20:27;;;;;;;27.13;16.53;;;;;;;;;;5053267;28;20092;-55
2021/04/27 02:22:55;;;;;;;25.00;16.43;;;;;;;;;;5052949;28;20418;-55
2021/04/27 02:25:26;;;;;;;19.90;15.73;;;;;;;;;;5053258;28;20036;-55
2021/04/27 02:27:59;;;;;;;21.37;15.40;;;;;;;;;;5053024;28;20021;-55
2021/04/27 02:30:30;;;;;;;22.00;15.60;;;;;;;;;;5052249;28;20387;-55
2021/04/27 02:33:05;;;;;;;25.80;15.70;;;;;;;;;;5052783;28;20280;-54
2021/04/27 02:35:33;;;;;;;;;;;;;;;;;;5053165;28;20553;-55
2021/04/27 02:38:06;;;;;;;21.57;16.23;;;;;;;;;;5052341;28;20283;-55
2021/04/27 02:40:41;;;;;;;25.70;17.37;;;;;;;;;;5052891;28;20103;-54
2021/04/27 02:43:15;;;;;;;23.67;16.50;;;;;;;;;;5052504;28;20439;-54
2021/04/27 02:45:45;;;;;;;23.05;16.65;;;;;;;;;;5052912;28;20115;-55
2021/04/27 02:48:26;;;;;;;24.13;16.93;;;;;;;;;;5052914;28;20054;-55
2021/04/27 02:51:02;;;;;;;21.50;16.20;;;;;;;;;;5052849;28;20104;-54
2021/04/27 02:53:38;;;;;;;26.63;16.97;;;;;;;;;;5052383;28;20071;-54
2021/04/27 02:56:09;;;;;;;24.37;17.13;;;;;;;;;;5034894;28;20108;-54
2021/04/27 02:58:41;;;;;;;23.63;16.70;;;;;;;;;;5052575;28;20029;-54
2021/04/27 03:01:11;;;;;;;23.33;17.23;;;;;;;;;;5052823;28;20084;-54
2021/04/27 03:03:39;;;;;;;24.03;16.20;;;;;;;;;;5052553;28;20535;-54
2021/04/27 03:06:09;;;;;;;28.10;16.97;;;;;;;;;;5052500;28;20091;-54
2021/04/27 03:08:43;;;;;;;26.33;16.77;;;;;;;;;;5052424;28;20029;-54
2021/04/27 03:11:16;;;;;;;21.98;16.77;;;;;;;;;;5052369;28;20033;-55
2021/04/27 03:13:47;;;;;;;21.83;16.17;;;;;;;;;;5052019;28;20053;-54
2021/04/27 03:16:20;;;;;;;21.57;15.73;;;;;;;;;;5052553;28;20017;-55
2021/04/27 03:18:54;;;;;;;20.00;16.67;;;;;;;;;;5052294;28;20071;-55
2021/04/27 03:21:24;;;;;;;23.53;16.33;;;;;;;;;;5052578;28;20048;-55
2021/04/27 03:23:55;;;;;;;22.93;16.40;;;;;;;;;;5052472;28;20037;-55
2021/04/27 03:26:34;;;;;;;24.30;15.83;;;;;;;;;;5052546;28;20107;-55
2021/04/27 03:29:10;;;;;;;22.40;16.57;;;;;;;;;;5052496;28;20475;-55
2021/04/27 03:31:43;;;;;;;26.43;16.43;;;;;;;;;;5052441;28;20025;-55
2021/04/27 03:34:14;;;;;;;26.17;17.17;;;;;;;;;;5052372;28;20478;-55
2021/04/27 03:36:45;;;;;;;23.57;17.07;;;;;;;;;;5052476;28;20075;-55
2021/04/27 03:39:23;;;;;;;26.47;16.60;;;;;;;;;;5052308;28;20086;-55
2021/04/27 03:42:00;;;;;;;23.33;16.53;;;;;;;;;;5052334;28;20494;-55
2021/04/27 03:44:37;;;;;;;22.10;17.67;;;;;;;;;;5052271;28;20024;-55
2021/04/27 03:47:08;;;;;;;31.77;17.87;;;;;;;;;;5052296;28;20050;-55
2021/04/27 03:49:37;;;;;;;21.73;17.93;;;;;;;;;;5054333;28;20028;-54
2021/04/27 03:52:06;;;;;;;27.03;19.13;;;;;;;;;;5055867;28;20391;-54
2021/04/27 03:54:44;;;;;;;27.07;18.93;;;;;;;;;;5056229;28;20099;-55
2021/04/27 03:57:15;;;;;;;30.67;18.57;;;;;;;;;;5055973;28;20071;-55
2021/04/27 03:59:46;;;;;;;26.60;19.53;;;;;;;;;;5055631;28;20036;-55
2021/04/27 04:02:15;;;;;;;22.47;18.50;;;;;;;;;;5055808;28;20029;-55
2021/04/27 04:04:44;;;;;;;28.87;18.07;;;;;;;;;;5055726;28;20028;-55
2021/04/27 04:07:12;;;;;;;26.70;17.90;;;;;;;;;;5055777;28;20025;-55
2021/04/27 04:09:42;;;;;;;26.07;19.07;;;;;;;;;;5055703;28;20495;-55
2021/04/27 04:12:13;;;;;;;25.57;18.87;;;;;;;;;;5055544;28;20017;-55
2021/04/27 04:14:47;;;;;;;24.57;19.63;;;;;;;;;;5056298;28;20178;-55
2021/04/27 04:17:18;;;;;;;28.23;19.98;;;;;;;;;;5055607;28;20029;-55
2021/04/27 04:19:50;;;;;;;25.77;19.50;;;;;;;;;;5055589;28;20096;-54
2021/04/27 04:22:19;;;;;;;27.90;20.13;;;;;;;;;;5055257;28;20037;-54
2021/04/27 04:24:50;;;;;;;28.80;21.20;;;;;;;;;;5055340;28;20524;-55
2021/04/27 04:27:21;;;;;;;28.63;20.37;;;;;;;;;;5054295;28;20060;-55
2021/04/27 04:29:54;;;;;;;31.87;20.03;;;;;;;;;;5055334;28;20021;-55
2021/04/27 04:32:25;;;;;;;25.73;20.13;;;;;;;;;;5054871;28;20483;-55
2021/04/27 04:35:03;;;;;;;29.77;21.17;;;;;;;;;;5055225;28;20475;-54
2021/04/27 04:37:37;;;;;;;28.70;20.40;;;;;;;;;;5055184;28;20027;-55
2021/04/27 04:40:16;;;;;;;27.20;19.00;;;;;;;;;;5055221;28;20038;-54
2021/04/27 04:42:53;;;;;;;30.60;19.93;;;;;;;;;;5055009;28;20044;-55
2021/04/27 04:45:31;;;;;;;23.73;19.27;;;;;;;;;;5054806;28;20454;-54
2021/04/27 04:48:01;;;;;;;28.90;19.40;;;;;;;;;;5055212;28;20013;-54
2021/04/27 04:50:35;;;;;;;27.83;19.50;;;;;;;;;;5055011;28;20021;-55
2021/04/27 04:53:04;;;;;;;25.87;18.83;;;;;;;;;;5054421;28;20033;-55
2021/04/27 04:55:35;;;;;;;29.97;19.93;;;;;;;;;;5054845;28;20036;-54
2021/04/27 04:58:08;;;;;;;25.60;18.63;;;;;;;;;;5054813;28;20443;-54
2021/04/27 05:00:40;;;;;;;29.50;19.83;;;;;;;;;;5054553;28;20510;-55
2021/04/27 05:03:11;;;;;;;24.60;18.90;;;;;;;;;;5054641;28;20064;-55
2021/04/27 05:05:42;;;;;;;32.80;19.60;;;;;;;;;;5054690;28;20043;-55
2021/04/27 05:08:48;;;;;;;27.93;20.17;;;;;;;;;;5054475;28;20052;-55
2021/04/27 05:11:07;;;;;;;29.33;20.63;;;;;;;;;;5049765;28;20435;-55
2021/04/27 05:13:38;;;;;;;25.83;19.57;;;;;;;;;;5054003;28;20030;-56
2021/04/27 05:16:19;;;;;;;25.93;18.97;;;;;;;;;;5054517;28;20044;-55
2021/04/27 05:18:52;;;;;;;27.33;19.23;;;;;;;;;;5054495;28;20096;-55
2021/04/27 05:21:19;;;;;;;26.00;18.83;;;;;;;;;;5054682;28;20021;-55
2021/04/27 05:23:46;;;;;;;29.43;19.67;;;;;;;;;;5054196;28;20033;-55
2021/04/27 05:26:13;;;;;;;28.87;19.37;;;;;;;;;;5054478;28;20048;-55
2021/04/27 05:28:40;;;;;;;26.60;19.83;;;;;;;;;;5054229;28;20157;-55
2021/04/27 05:31:06;;;;;;;29.80;19.63;;;;;;;;;;5054063;28;20025;-55
2021/04/27 05:33:33;;;;;;;28.50;19.83;;;;;;;;;;5054069;28;20029;-55
2021/04/27 05:36:00;;;;;;;28.43;21.23;;;;;;;;;;5054033;28;20467;-55
2021/04/27 05:38:27;;;;;;;30.57;19.23;;;;;;;;;;5053995;28;20055;-55
2021/04/27 05:40:54;;;;;;;26.67;19.37;;;;;;;;;;5054008;28;20471;-55
2021/04/27 05:43:21;;;;;;;27.03;19.57;;;;;;;;;;5053736;28;20036;-55
2021/04/27 05:45:47;;;;;;;32.27;21.70;;;;;;;;;;5054259;28;20041;-55
2021/04/27 05:48:14;;;;;;;28.93;19.73;;;;;;;;;;5053952;28;20036;-55
2021/04/27 05:50:41;;;;;;;30.23;20.50;;;;;;;;;;5053805;28;20060;-55
2021/04/27 05:53:08;;;;;;;25.17;19.47;;;;;;;;;;5053728;28;20467;-55
2021/04/27 05:55:37;;;;;;;27.40;20.53;;;;;;;;;;5053675;28;20021;-54
2021/04/27 05:58:04;;;;;;;24.70;19.40;;;;;;;;;;5053673;28;20021;-55
2021/04/27 06:00:31;;;;;;;33.53;21.30;;;;;;;;;;5053620;28;20032;-55
2021/04/27 06:02:57;;;;;;;32.47;21.43;;;;;;;;;;5053491;28;20415;-55
2021/04/27 06:05:24;;;;;;;33.43;22.83;;;;;;;;;;5053527;28;20017;-55
2021/04/27 06:07:51;;;;;;;32.10;20.70;;;;;;;;;;5053416;28;20079;-55
2021/04/27 06:10:18;;;;;;;26.10;19.77;;;;;;;;;;5053501;28;20025;-55
2021/04/27 06:12:45;;;;;;;34.37;20.93;;;;;;;;;;5052652;28;20535;-55
2021/04/27 06:15:12;;;;;;;25.40;19.03;;;;;;;;;;5052953;28;20045;-55
2021/04/27 06:17:39;;;;;;;26.27;20.03;;;;;;;;;;5053328;28;20052;-55
2021/04/27 06:20:09;;;;;;;30.80;20.03;;;;;;;;;;5053172;28;20788;-55
2021/04/27 06:22:37;;;;;;;28.80;20.03;;;;;;;;;;5053015;28;20432;-55
2021/04/27 06:25:04;;;;;;;26.93;19.17;;;;;;;;;;5053167;28;20036;-55
2021/04/27 06:27:38;;;;;;;26.13;18.17;;;;;;;;;;5053160;28;20025;-55
2021/04/27 06:30:07;;;;;;;28.23;15.45;;;;;;;;;;5053077;28;20107;-55
2021/04/27 06:32:34;;;;;;;24.17;16.00;;;;;;;;;;5053074;28;20391;-55
2021/04/27 06:35:01;;;;;;;18.83;13.37;;;;;;;;;;5053079;28;20029;-55
2021/04/27 06:37:28;;;;;;;21.03;13.30;;;;;;;;;;5052885;28;20100;-55
2021/04/27 06:39:54;;;;;;;21.33;13.20;;;;;;;;;;5052940;28;20399;-55
2021/04/27 06:42:21;;;;;;;17.57;12.20;;;;;;;;;;5052749;28;20379;-55
2021/04/27 06:44:48;;;;;;;16.93;12.03;;;;;;;;;;5052784;28;20049;-54
2021/04/27 06:47:15;;;;;;;17.70;12.37;;;;;;;;;;5052844;28;20029;-55
2021/04/27 06:49:42;;;;;;;19.23;11.60;;;;;;;;;;5052787;28;20108;-54
2021/04/27 06:52:09;;;;;;;14.53;10.77;;;;;;;;;;5052763;28;20029;-55
2021/04/27 06:54:36;;;;;;;19.37;12.47;;;;;;;;;;5052654;28;20124;-55
2021/04/27 06:57:04;;;;;;;19.80;13.40;;;;;;;;;;5052720;28;20527;-55
2021/04/27 06:59:31;;;;;;;18.20;13.60;;;;;;;;;;5052784;28;20055;-54
2021/04/27 07:02:01;;;;;;;21.00;13.93;;;;;;;;;;5052455;28;20029;-55
2021/04/27 07:04:28;;;;;;;19.47;13.00;;;;;;;;;;5052674;28;20472;-54
2021/04/27 07:06:55;;;;;;;14.60;11.60;;;;;;;;;;5052602;28;20108;-54
2021/04/27 07:09:22;;;;;;;18.67;12.50;;;;;;;;;;5035086;28;20490;-54
2021/04/27 07:11:49;;;;;;;16.90;11.67;;;;;;;;;;5052505;28;20029;-55
2021/04/27 07:14:15;;;;;;;14.97;11.40;;;;;;;;;;5052201;28;20060;-55
2021/04/27 07:16:42;;;;;;;23.13;12.77;;;;;;;;;;5034813;28;20024;-54
2021/04/27 07:19:09;;;;;;;17.90;11.87;;;;;;;;;;5052522;28;20214;-54
2021/04/27 07:21:37;;;;;;;15.97;12.20;;;;;;;;;;5052506;28;20075;-54
2021/04/27 07:24:04;;;;;;;18.13;13.30;;;;;;;;;;5053865;28;20052;-54
2021/04/27 07:26:31;;;;;;;18.53;13.27;;;;;;;;;;5056456;28;20040;-55
2021/04/27 07:28:59;;;;;;;28.13;13.93;;;;;;;;;;5056507;28;20452;-54
2021/04/27 07:31:25;;;;;;;19.17;11.83;;;;;;;;;;5056362;28;20311;-54
2021/04/27 07:33:52;;;;;;;16.13;11.33;;;;;;;;;;5056308;28;20060;-55
2021/04/27 07:36:19;;;;;;;15.93;11.40;;;;;;;;;;5056417;28;20021;-54
2021/04/27 07:38:46;;;;;;;17.40;12.27;;;;;;;;;;5056233;28;20044;-54
2021/04/27 07:41:13;;;;;;;18.00;13.33;;;;;;;;;;5056138;28;20471;-54
2021/04/27 07:43:40;;;;;;;22.97;13.93;;;;;;;;;;5056108;28;20061;-54
2021/04/27 07:46:07;;;;;;;18.47;12.20;;;;;;;;;;5056143;28;20033;-54
2021/04/27 07:48:34;;;;;;;18.93;12.53;;;;;;;;;;5056122;28;20036;-54
2021/04/27 07:51:00;;;;;;;18.33;12.80;;;;;;;;;;5055999;28;20052;-54
2021/04/27 07:53:27;;;;;;;18.03;13.10;;;;;;;;;;5055997;28;20033;-54
2021/04/27 07:55:54;;;;;;;20.57;12.93;;;;;;;;;;5055984;28;20021;-54
2021/04/27 07:58:21;;;;;;;18.03;12.43;;;;;;;;;;5055898;28;20060;-54
2021/04/27 08:00:48;;;;;;;17.33;11.80;;;;;;;;;;5055631;28;20062;-54
2021/04/27 08:03:15;;;;;;;20.53;12.67;;;;;;;;;;5055663;28;20395;-54
2021/04/27 08:05:42;;;;;;;15.83;12.07;;;;;;;;;;5055874;28;20029;-54
2021/04/27 08:08:08;;;;;;;15.80;11.00;;;;;;;;;;5055754;28;20028;-54
2021/04/27 08:10:35;;;;;;;17.70;11.73;;;;;;;;;;5055792;28;20451;-54
2021/04/27 08:13:02;;;;;;;17.80;12.70;;;;;;;;;;5037663;28;20083;-54
2021/04/27 08:15:30;;;;;;;18.63;12.83;;;;;;;;;;5055921;28;20484;-54
2021/04/27 08:17:59;;;;;;;17.80;12.63;;;;;;;;;;5055442;28;20079;-54
2021/04/27 08:20:26;;;;;;;19.97;11.80;;;;;;;;;;5055499;28;20029;-54
2021/04/27 08:22:53;;;;;;;16.50;11.03;;;;;;;;;;5055329;28;20037;-54
2021/04/27 08:25:20;;;;;;;15.90;12.27;;;;;;;;;;5055534;28;20021;-54
2021/04/27 08:27:48;;;;;;;15.03;11.00;;;;;;;;;;5055368;28;20035;-54
2021/04/27 08:30:15;;;;;;;21.77;12.77;;;;;;;;;;5055304;28;20424;-54
2021/04/27 08:32:42;;;;;;;18.37;11.83;;;;;;;;;;5055209;28;20021;-54
2021/04/27 08:35:10;;;;;;;17.43;11.50;;;;;;;;;;5054804;28;20075;-54
2021/04/27 08:37:37;;;;;;;18.57;12.67;;;;;;;;;;5055197;28;20423;-54
2021/04/27 08:40:08;;;;;;;20.27;11.63;;;;;;;;;;5055101;28;20379;-54
2021/04/27 08:42:35;;;;;;;17.27;11.80;;;;;;;;;;5055029;28;20424;-54
2021/04/27 08:45:04;;;;;;;16.30;11.73;;;;;;;;;;5055093;28;20028;-54
2021/04/27 08:47:31;;;;;;;18.97;12.23;;;;;;;;;;5054950;28;20530;-54
2021/04/27 08:49:58;;;;;;;14.83;10.83;;;;;;;;;;5055088;28;20029;-54
2021/04/27 08:52:25;;;;;;;14.87;11.10;;;;;;;;;;5054965;28;20052;-54
2021/04/27 08:54:52;;;;;;;20.80;13.73;;;;;;;;;;5054990;28;20051;-54
2021/04/27 08:57:18;;;;;;;18.97;13.33;;;;;;;;;;5054877;28;20436;-54
2021/04/27 08:59:45;;;;;;;16.00;11.60;;;;;;;;;;5054648;28;20048;-54
2021/04/27 09:02:12;;;;;;;16.53;11.67;;;;;;;;;;5054565;28;20037;-54
2021/04/27 09:04:49;;;;;;;15.07;10.73;;;;;;;;;;5054670;28;20043;-54
2021/04/27 09:07:19;;;;;;;21.17;12.27;;;;;;;;;;5054322;28;20083;-54
2021/04/27 09:09:48;;;;;;;18.57;13.67;;;;;;;;;;5054513;28;20048;-54
2021/04/27 09:12:19;;;;;;;21.40;14.00;;;;;;;;;;5054542;28;20566;-54
2021/04/27 09:14:46;;;;;;;21.17;12.93;;;;;;;;;;5054827;28;20073;-54
2021/04/27 09:17:13;;;;;;;19.67;12.87;;;;;;;;;;5054516;28;20029;-54
2021/04/27 09:19:40;;;;;;;18.83;12.90;;;;;;;;;;5054429;28;20472;-54
2021/04/27 09:22:13;;;;;;;22.07;13.03;;;;;;;;;;5054301;28;20035;-54
2021/04/27 09:24:44;;;;;;;17.80;11.47;;;;;;;;;;5054426;28;20033;-54
2021/04/27 09:27:12;;;;;;;14.80;11.73;;;;;;;;;;5054280;28;20419;-54
2021/04/27 09:29:46;;;;;;;18.50;13.37;;;;;;;;;;5054098;28;20025;-54
2021/04/27 09:32:12;;;;;;;18.57;11.70;;;;;;;;;;5054024;28;20094;-54
2021/04/27 09:34:40;;;;;;;21.27;12.60;;;;;;;;;;5054107;28;20211;-54
2021/04/27 09:37:13;;;;;;;18.57;12.40;;;;;;;;;;5054142;28;20025;-54
2021/04/27 09:39:40;;;;;;;19.37;12.57;;;;;;;;;;5054050;28;20032;-54
2021/04/27 09:42:08;;;;;;;18.30;11.80;;;;;;;;;;5053786;28;20040;-54
2021/04/27 09:44:40;;;;;;;18.77;12.60;;;;;;;;;;5053950;28;20017;-54
2021/04/27 09:47:07;;;;;;;18.00;12.60;;;;;;;;;;5053028;28;20025;-54
2021/04/27 09:49:34;;;;;;;16.53;11.83;;;;;;;;;;5053792;28;20029;-54
2021/04/27 09:52:01;;;;;;;17.73;12.27;;;;;;;;;;5053739;28;20383;-54
2021/04/27 09:54:35;;;;;;;20.80;12.60;;;;;;;;;;5053783;28;20033;-54
2021/04/27 09:57:01;;;;;;;19.83;11.73;;;;;;;;;;5053731;28;20083;-54
2021/04/27 09:59:30;;;;;;;18.43;11.87;;;;;;;;;;5053607;28;20033;-54
2021/04/27 10:01:58;;;;;;;16.67;11.50;;;;;;;;;;5053455;28;20013;-54
2021/04/27 10:04:28;;;;;;;17.87;12.20;;;;;;;;;;5053896;28;20107;-54
2021/04/27 10:06:57;;;;;;;17.87;12.73;;;;;;;;;;5053504;28;20028;-54
2021/04/27 10:09:25;;;;;;;21.23;13.70;;;;;;;;;;5053439;28;20045;-54
2021/04/27 10:11:53;;;;;;;18.07;11.30;;;;;;;;;;5053438;28;20017;-54
2021/04/27 10:14:20;;;;;;;20.03;12.70;;;;;;;;;;5053210;28;20510;-54
2021/04/27 10:16:47;;;;;;;17.70;12.47;;;;;;;;;;5054040;28;20025;-54
2021/04/27 10:19:14;;;;;;;15.80;10.73;;;;;;;;;;5053331;28;20055;-54
2021/04/27 10:21:41;;;;;;;18.83;11.73;;;;;;;;;;5053645;28;20032;-54
2021/04/27 10:24:12;;;;;;;15.57;11.30;;;;;;;;;;5053200;28;20626;-54
2021/04/27 10:26:42;;;;;;;15.83;11.23;;;;;;;;;;5053374;28;20049;-54
2021/04/27 10:29:16;;;;;;;17.13;11.47;;;;;;;;;;5053174;28;20025;-54
2021/04/27 10:31:43;;;;;;;16.07;10.70;;;;;;;;;;5053160;28;20028;-54
2021/04/27 10:34:11;;;;;;;18.80;12.90;;;;;;;;;;5053045;28;20549;-54
2021/04/27 10:36:58;;;;;;;17.43;12.00;;;;;;;;;;5053254;28;20020;-54
2021/04/27 10:39:48;;;;;;;18.23;11.73;;;;;;;;;;5052698;28;20029;-54
2021/04/27 10:42:19;;;;;;;20.90;12.07;;;;;;;;;;5034959;28;20025;-54
2021/04/27 10:44:51;;;;;;;16.70;12.27;;;;;;;;;;5052932;28;20025;-54
2021/04/27 10:47:19;;;;;;;18.63;11.40;;;;;;;;;;5052984;28;20448;-54
2021/04/27 10:49:46;;;;;;;22.00;11.97;;;;;;;;;;5052924;28;20033;-54
2021/04/27 10:52:32;;;;;;;18.33;11.57;;;;;;;;;;5052730;28;20033;-54
2021/04/27 10:55:18;;;;;;;14.70;10.53;;;;;;;;;;5052740;28;20036;-54
2021/04/27 10:57:48;;;;;;;21.70;11.50;;;;;;;;;;5052604;28;20017;-54
2021/04/27 11:00:34;;;;;;;15.37;11.60;;;;;;;;;;5052840;28;20295;-54
2021/04/27 11:03:12;;;;;;;18.90;12.10;;;;;;;;;;5039304;28;20063;-54
2021/04/27 11:05:58;;;;;;;18.60;12.07;;;;;;;;;;5052795;28;20029;-54
2021/04/27 11:08:42;;;;;;;17.63;11.97;;;;;;;;;;5052764;28;20036;-54
2021/04/27 11:11:24;;;;;;;29.35;11.18;;;;;;;;;;5052698;28;20031;-54
2021/04/27 11:13:51;;;;;;;15.27;10.87;;;;;;;;;;5052543;28;20037;-54
2021/04/27 11:16:31;;;;;;;17.33;11.90;;;;;;;;;;5052489;28;20041;-54
2021/04/27 11:19:34;;;;;;;14.93;10.60;;;;;;;;;;5052526;28;20119;-54
2021/04/27 11:22:16;;;;;;;21.00;11.50;;;;;;;;;;5052207;28;20104;-54
2021/04/27 11:24:43;;;;;;;15.57;11.40;;;;;;;;;;5052592;28;20047;-54
2021/04/27 11:27:29;;;;;;;16.20;11.07;;;;;;;;;;5034578;28;20086;-54
2021/04/27 11:30:04;;;;;;;27.57;12.50;;;;;;;;;;5052478;28;20025;-54
2021/04/27 11:32:32;;;;;;;16.60;10.43;;;;;;;;;;5052360;28;20467;-53
2021/04/27 11:35:00;;;;;;;14.20;10.13;;;;;;;;;;5052471;28;20380;-53
2021/04/27 11:37:29;;;;;;;16.03;10.53;;;;;;;;;;5052319;28;20060;-53
2021/04/27 11:39:57;;;;;;;17.60;10.60;;;;;;;;;;5052336;28;20029;-53
2021/04/27 11:42:25;;;;;;;14.70;10.70;;;;;;;;;;5052251;28;20021;-54
2021/04/27 11:45:02;;;;;;;15.53;11.00;;;;;;;;;;5052824;28;20025;-54
2021/04/27 11:47:36;;;;;;;16.03;10.13;;;;;;;;;;5052226;28;20067;-53
2021/04/27 11:50:12;;;;;;;17.30;11.48;;;;;;;;;;5052368;28;20032;-53
2021/04/27 11:52:48;;;;;;;14.93;10.53;;;;;;;;;;5052272;28;20025;-54
2021/04/27 11:55:45;;;;;;;18.00;10.40;;;;;;;;;;5052249;28;20036;-53
2021/04/27 11:58:16;;;;;;;14.93;10.03;;;;;;;;;;5035419;28;20041;-53
2021/04/27 12:00:53;;;;;;;14.23;9.70;;;;;;;;;;5052201;28;20017;-54
2021/04/27 12:03:28;;;;;;;17.63;10.30;;;;;;;;;;5051973;28;20388;-54
2021/04/27 12:06:00;;;;;;;15.68;11.32;;;;;;;;;;5052121;28;20048;-54
2021/04/27 12:08:32;;;;;;;16.63;10.50;;;;;;;;;;5051943;28;20025;-54
2021/04/27 12:11:10;;;;;;;19.23;11.17;;;;;;;;;;5054314;28;20021;-54
2021/04/27 12:13:37;;;;;;;16.20;11.13;;;;;;;;;;5055497;28;20411;-54
2021/04/27 12:16:04;;;;;;;17.00;11.10;;;;;;;;;;5054850;28;20049;-54
2021/04/27 12:18:31;;;;;;;16.70;10.90;;;;;;;;;;5055581;28;20091;-54
2021/04/27 12:20:58;;;;;;;16.17;10.90;;;;;;;;;;5055537;28;20025;-54
2021/04/27 12:23:25;;;;;;;15.53;10.70;;;;;;;;;;5055564;28;20036;-54
2021/04/27 12:25:57;;;;;;;16.97;11.17;;;;;;;;;;5055578;28;20025;-54
2021/04/27 12:28:24;;;;;;;17.80;11.43;;;;;;;;;;5055474;28;20018;-54
2021/04/27 12:30:51;;;;;;;18.10;11.23;;;;;;;;;;5056061;28;20407;-54
2021/04/27 12:33:22;;;;;;;15.40;11.13;;;;;;;;;;5055334;28;20024;-54
2021/04/27 12:35:53;;;;;;;18.37;11.00;;;;;;;;;;5055370;28;20017;-54
2021/04/27 12:38:19;;;;;;;14.03;9.07;;;;;;;;;;5055283;28;20093;-54
2021/04/27 12:40:53;;;;;;;18.97;9.90;;;;;;;;;;5055206;28;20036;-54
2021/04/27 12:43:28;;;;;;;16.97;10.50;;;;;;;;;;5054979;28;20035;-54
2021/04/27 12:45:58;;;;;;;18.13;10.50;;;;;;;;;;5037261;28;20036;-54
2021/04/27 12:48:28;;;;;;;20.20;10.37;;;;;;;;;;5055106;28;20029;-54
2021/04/27 12:50:58;;;;;;;25.27;12.47;;;;;;;;;;5054966;28;20041;-54
2021/04/27 12:53:34;;;;;;;17.83;10.37;;;;;;;;;;5054831;28;20040;-54
2021/04/27 12:56:08;;;;;;;19.47;11.13;;;;;;;;;;5055063;28;20021;-54
2021/04/27 12:58:35;;;;;;;21.73;10.37;;;;;;;;;;5037040;28;20033;-54
2021/04/27 13:01:03;;;;;;;16.13;10.77;;;;;;;;;;5054847;28;20017;-54
2021/04/27 13:03:32;;;;;;;25.87;14.33;;;;;;;;;;5054708;28;20063;-54
2021/04/27 13:05:58;;;;;;;27.27;15.97;;;;;;;;;;5054645;28;20021;-54
2021/04/27 13:08:26;;;;;;;31.57;16.70;;;;;;;;;;5055346;28;20071;-54
2021/04/27 13:10:54;;;;;;;29.47;17.60;;;;;;;;;;5054664;28;20066;-54
2021/04/27 13:13:22;;;;;;;31.57;17.73;;;;;;;;;;5054430;28;20427;-54
2021/04/27 13:15:53;;;;;;;33.63;18.03;;;;;;;;;;5054259;28;20136;-54
2021/04/27 13:18:23;;;;;;;31.43;18.70;;;;;;;;;;5054562;28;20021;-54
2021/04/27 13:20:54;;;;;;;34.03;20.23;;;;;;;;;;5054396;28;20023;-54
2021/04/27 13:23:26;;;;;;;35.30;21.27;;;;;;;;;;5036294;28;20032;-54
2021/04/27 13:26:01;;;;;;;33.23;21.07;;;;;;;;;;5054323;28;20091;-54
2021/04/27 13:28:31;;;;;;;33.90;20.20;;;;;;;;;;5054382;28;20100;-54
2021/04/27 13:30:57;;;;;;;27.70;19.73;;;;;;;;;;5054600;28;20096;-54
2021/04/27 13:33:30;;;;;;;30.07;18.67;;;;;;;;;;5036286;28;20025;-54
2021/04/27 13:35:58;;;;;;;25.67;16.33;;;;;;;;;;5054262;28;20472;-54
2021/04/27 13:38:30;;;;;;;31.77;18.33;;;;;;;;;;5053978;28;20036;-54
2021/04/27 13:40:59;;;;;;;31.33;16.57;;;;;;;;;;5054157;28;20060;-54
2021/04/27 13:43:30;;;;;;;26.20;15.83;;;;;;;;;;5053852;28;20048;-54
2021/04/27 13:45:58;;;;;;;30.63;18.27;;;;;;;;;;5054004;28;20047;-54
2021/04/27 13:48:27;;;;;;;33.53;17.43;;;;;;;;;;5053902;28;20036;-54
2021/04/27 13:50:55;;;;;;;38.90;19.90;;;;;;;;;;5053858;28;20029;-54
2021/04/27 13:53:22;;;;;;;25.50;17.60;;;;;;;;;;5053721;28;20086;-54
2021/04/27 13:55:50;;;;;;;29.60;19.13;;;;;;;;;;5053749;28;20032;-54
2021/04/27 13:58:19;;;;;;;25.43;16.83;;;;;;;;;;5053738;28;20051;-55
2021/04/27 14:00:47;;;;;;;22.47;15.70;;;;;;;;;;5054328;28;20024;-54
2021/04/27 14:03:13;;;;;;;34.47;18.40;;;;;;;;;;5053531;28;20391;-55
2021/04/27 14:05:41;;;;;;;35.33;18.20;;;;;;;;;;5053591;28;20048;-55
2021/04/27 14:08:08;;;;;;;32.20;18.60;;;;;;;;;;5053602;28;20061;-55
2021/04/27 14:10:36;;;;;;;31.00;18.90;;;;;;;;;;5053593;28;20226;-55
2021/04/27 14:13:03;;;;;;;24.23;15.67;;;;;;;;;;5053290;28;20025;-55
2021/04/27 14:15:32;;;;;;;25.60;16.77;;;;;;;;;;5053070;28;20086;-55
2021/04/27 14:17:59;;;;;;;28.63;16.37;;;;;;;;;;5053402;28;20021;-55
2021/04/27 14:20:27;;;;;;;28.93;18.00;;;;;;;;;;5053357;28;20471;-55
2021/04/27 14:22:55;;;;;;;27.90;16.83;;;;;;;;;;5053135;28;20041;-55
2021/04/27 14:25:21;;;;;;;25.23;15.37;;;;;;;;;;5053291;28;20024;-55
2021/04/27 14:27:48;;;;;;;21.53;15.53;;;;;;;;;;5053237;28;20502;-55
2021/04/27 14:30:18;;;;;;;23.33;16.10;;;;;;;;;;5053113;28;20021;-55
2021/04/27 14:32:46;;;;;;;26.03;15.20;;;;;;;;;;5052735;28;20029;-55
2021/04/27 14:35:14;;;;;;;25.10;17.00;;;;;;;;;;5053059;28;20045;-55
2021/04/27 14:37:41;;;;;;;23.70;13.87;;;;;;;;;;5053280;28;20057;-55